F\v Pico_da Lebre — EB7323 — position and weather

sailwx.info

Track history (hours):
 
Tides and Currents Weather Stations Pressure Air Temp Water Temp Dewpoint Dewpoint Depression Visibility Wind Speed Wind Dir Waves Ship Positions

F\v Pico_da Lebre

Last reported at 2017-Dec-08 22:20 UTC. Time now 2017-Dec-12 15:54 UTC.
Position N 43°41' W 007°36'.

Length 13 m; draft 4 m.

Type: Fishing. MMSI: 224042970.

Date/timePositionNaut miles runAvg speedWind from/ knotsBaromVisibWave heightAir tempDewpointWater temp
2017-Dec-08 22:20N 43°41' W 007°36'0 0.2
2017-Dec-08 22:01N 43°41' W 007°36'2 4.1
2017-Dec-08 21:30N 43°43' W 007°35'3 6.6
2017-Dec-08 21:00N 43°45' W 007°32'76 6.8
2017-Dec-08 09:52N 43°40' W 005°47'3 6.5
2017-Dec-08 09:23N 43°39' W 005°43'2 6.4
2017-Dec-08 09:00N 43°39' W 005°40'4 6.5
2017-Dec-08 08:28N 43°39' W 005°35'3 6.4
2017-Dec-08 08:01N 43°38' W 005°31'4 6.7
2017-Dec-08 07:29N 43°38' W 005°26'73 5.9
2017-Dec-07 19:02N 43°30' W 003°46'0 5.7
2017-Dec-07 19:00N 43°30' W 003°46'3 5.4
2017-Dec-07 18:27N 43°32' W 003°43'3 6.8
2017-Dec-07 17:59N 43°34' W 003°40'3 6.8
2017-Dec-07 17:30N 43°37' W 003°37'1 1.6
2017-Dec-07 17:00N 43°38' W 003°37'0 0.6
2017-Dec-07 16:31N 43°38' W 003°37'1 1.5
2017-Dec-07 16:00N 43°37' W 003°36'0 0.6
2017-Dec-07 15:30N 43°37' W 003°36'0 0.7
2017-Dec-07 15:01N 43°37' W 003°36'0 0.9
2017-Dec-07 14:30N 43°36' W 003°36'0 0.7
2017-Dec-07 14:00N 43°36' W 003°35'0 0.4
2017-Dec-07 13:30N 43°36' W 003°35'0 0.5
2017-Dec-07 13:00N 43°36' W 003°35'0 0.7
2017-Dec-07 12:31N 43°35' W 003°36'0 0.6
2017-Dec-07 12:01N 43°35' W 003°36'0 0.6
2017-Dec-07 11:31N 43°35' W 003°36'0 0.3
2017-Dec-07 11:00N 43°35' W 003°36'0 0.5
2017-Dec-07 10:30N 43°35' W 003°35'0 0.8
2017-Dec-07 10:01N 43°35' W 003°35'0 0.8
2017-Dec-07 09:30N 43°35' W 003°34'0 0.6
2017-Dec-07 09:00N 43°35' W 003°34'0 0.5
2017-Dec-07 08:31N 43°35' W 003°34'0 0.4
2017-Dec-07 08:01N 43°35' W 003°34'1 1.9
2017-Dec-07 07:31N 43°36' W 003°34'2 3.2
2017-Dec-07 07:01N 43°37' W 003°35'0 0.4
2017-Dec-07 06:31N 43°37' W 003°35'1 1.9
2017-Dec-07 06:00N 43°37' W 003°36'2 3.1
2017-Dec-07 05:31N 43°36' W 003°35'1 2.4
2017-Dec-07 05:01N 43°35' W 003°36'2 3.0
2017-Dec-07 04:30N 43°35' W 003°34'1 1.3
2017-Dec-07 04:00N 43°35' W 003°35'3 6.2
2017-Dec-07 03:30N 43°34' W 003°31'3 6.8
2017-Dec-07 03:00N 43°32' W 003°27'3 6.8
2017-Dec-07 02:31N 43°30' W 003°23'1 2.3
2017-Dec-07 02:00N 43°29' W 003°23'3 6.4
2017-Dec-07 01:31N 43°26' W 003°26'  
2017-Dec-04 10:30N 43°34' W 003°28'0 0.5
2017-Dec-04 10:00N 43°34' W 003°27'0 0.8
2017-Dec-04 09:30N 43°34' W 003°27'0 0.8
2017-Dec-04 09:00N 43°34' W 003°27'0 0.6
2017-Dec-04 08:30N 43°34' W 003°26'0 0.1
2017-Dec-04 08:00N 43°34' W 003°26'0 0.6
2017-Dec-04 07:30N 43°33' W 003°26'1 1.8
2017-Dec-04 07:00N 43°33' W 003°25'0 0.7
2017-Dec-04 06:30N 43°33' W 003°25'0 0.7
2017-Dec-04 06:00N 43°33' W 003°26'1 1.4
2017-Dec-04 05:30N 43°34' W 003°27'1 2.1
2017-Dec-04 05:00N 43°34' W 003°28'2 4.3
2017-Dec-04 04:30N 43°34' W 003°31'2 4.5
2017-Dec-04 04:00N 43°34' W 003°34'0 0.9
2017-Dec-04 03:30N 43°35' W 003°34'0 0.3
2017-Dec-04 03:00N 43°35' W 003°34'0 0.5
2017-Dec-04 02:30N 43°35' W 003°34'0 0.6
2017-Dec-04 02:00N 43°35' W 003°35'0 0.6
2017-Dec-04 01:30N 43°34' W 003°35'1 2.2
2017-Dec-04 01:00N 43°34' W 003°36'3 6.8
2017-Dec-04 00:30N 43°32' W 003°40'  
2017-Nov-30 16:59N 43°30' W 003°41'2 2.0
2017-Nov-30 16:02N 43°31' W 003°39'0 0.6
2017-Nov-30 15:40N 43°31' W 003°39'0 0.5
2017-Nov-30 15:30N 43°31' W 003°39'0 0.6
2017-Nov-30 15:00N 43°31' W 003°38'0 0.7
2017-Nov-30 14:29N 43°32' W 003°38'0 0.7
2017-Nov-30 14:00N 43°32' W 003°37'0 0.8
2017-Nov-30 13:28N 43°32' W 003°37'0 0.7
2017-Nov-30 13:00N 43°32' W 003°36'0 0.6
2017-Nov-30 12:31N 43°32' W 003°36'0 0.6
2017-Nov-30 11:58N 43°32' W 003°35'0 0.8
2017-Nov-30 11:30N 43°32' W 003°35'0 0.6
2017-Nov-30 10:59N 43°32' W 003°35'0 0.8
2017-Nov-30 10:29N 43°32' W 003°34'0 0.1
2017-Nov-30 10:00N 43°32' W 003°34'1 1.0
2017-Nov-30 09:29N 43°32' W 003°33'0 0.7
2017-Nov-30 09:00N 43°32' W 003°33'0 0.9
2017-Nov-30 08:31N 43°32' W 003°32'0 0.9
2017-Nov-30 08:00N 43°33' W 003°32'0 0.6
2017-Nov-30 07:30N 43°33' W 003°31'3 7.0
2017-Nov-30 07:01N 43°32' W 003°36'4 7.2
2017-Nov-30 06:31N 43°30' W 003°41'5 0.5
2017-Nov-29 20:04N 43°32' W 003°34'1 3.2
2017-Nov-29 19:49N 43°32' W 003°32'1 2.5
2017-Nov-29 19:27N 43°33' W 003°31'2 4.7
2017-Nov-29 19:00N 43°34' W 003°33'0 0.7
2017-Nov-29 18:30N 43°35' W 003°33'0 0.2
2017-Nov-29 18:00N 43°35' W 003°34'0 0.4
2017-Nov-29 17:31N 43°34' W 003°34'0 0.2
2017-Nov-29 17:00N 43°34' W 003°34'0 0.9
2017-Nov-29 16:31N 43°34' W 003°34'0 0.7
2017-Nov-29 16:00N 43°34' W 003°34'0 0.4
2017-Nov-29 15:30N 43°35' W 003°34'1 1.2
2017-Nov-29 15:00N 43°34' W 003°34'2 4.6
2017-Nov-29 14:30N 43°34' W 003°31'2 4.0
2017-Nov-29 14:01N 43°34' W 003°28'0 0.6
2017-Nov-29 13:31N 43°34' W 003°28'0 0.2
2017-Nov-29 13:00N 43°34' W 003°28'0 0.5
2017-Nov-29 12:31N 43°34' W 003°28'0 0.5
2017-Nov-29 12:00N 43°34' W 003°28'0 0.4
2017-Nov-29 11:31N 43°34' W 003°27'0 0.2
2017-Nov-29 11:01N 43°34' W 003°27'0 0.1
2017-Nov-29 10:31N 43°34' W 003°27'0 0.4
2017-Nov-29 10:01N 43°34' W 003°27'0 0.6
2017-Nov-29 09:30N 43°34' W 003°27'0 0.5
2017-Nov-29 09:01N 43°34' W 003°27'0 0.9
2017-Nov-29 08:30N 43°34' W 003°27'0 0.5
2017-Nov-29 08:01N 43°34' W 003°26'0 0.5
2017-Nov-29 07:30N 43°33' W 003°26'0 0.7
2017-Nov-29 07:01N 43°33' W 003°27'0 0.8
2017-Nov-29 06:30N 43°34' W 003°27'1 1.6
2017-Nov-29 06:01N 43°34' W 003°27'0 0.7
2017-Nov-29 05:31N 43°34' W 003°28'3 5.6
2017-Nov-29 05:00N 43°34' W 003°32'2 3.8
2017-Nov-29 04:30N 43°35' W 003°34'1 1.1
2017-Nov-29 04:00N 43°34' W 003°33'3 5.9
2017-Nov-29 03:30N 43°33' W 003°30'3 5.5
2017-Nov-29 03:01N 43°32' W 003°27'3 5.9
2017-Nov-29 02:31N 43°30' W 003°23'1 2.1
2017-Nov-29 02:00N 43°29' W 003°23'3 6.5
2017-Nov-29 01:31N 43°26' W 003°25'  
Track history (hours):
 
Tides and Currents Weather Stations Pressure Air Temp Water Temp Dewpoint Dewpoint Depression Visibility Wind Speed Wind Dir Waves Ship Positions

F\v Pico_da Lebre

Last reported at 2017-Dec-08 22:20 UTC. Time now 2017-Dec-12 15:54 UTC.
Position N 43°41' W 007°36'.

Length 13 m; draft 4 m.

Type: Fishing. MMSI: 224042970.

Date/timePositionNaut miles runAvg speedWind from/ knotsBaromVisibWave heightAir tempDewpointWater temp
2017-Dec-08 22:20N 43°41' W 007°36'0 0.2
2017-Dec-08 22:01N 43°41' W 007°36'2 4.1
2017-Dec-08 21:30N 43°43' W 007°35'3 6.6
2017-Dec-08 21:00N 43°45' W 007°32'76 6.8
2017-Dec-08 09:52N 43°40' W 005°47'3 6.5
2017-Dec-08 09:23N 43°39' W 005°43'2 6.4
2017-Dec-08 09:00N 43°39' W 005°40'4 6.5
2017-Dec-08 08:28N 43°39' W 005°35'3 6.4
2017-Dec-08 08:01N 43°38' W 005°31'4 6.7
2017-Dec-08 07:29N 43°38' W 005°26'73 5.9
2017-Dec-07 19:02N 43°30' W 003°46'0 5.7
2017-Dec-07 19:00N 43°30' W 003°46'3 5.4
2017-Dec-07 18:27N 43°32' W 003°43'3 6.8
2017-Dec-07 17:59N 43°34' W 003°40'3 6.8
2017-Dec-07 17:30N 43°37' W 003°37'1 1.6
2017-Dec-07 17:00N 43°38' W 003°37'0 0.6
2017-Dec-07 16:31N 43°38' W 003°37'1 1.5
2017-Dec-07 16:00N 43°37' W 003°36'0 0.6
2017-Dec-07 15:30N 43°37' W 003°36'0 0.7
2017-Dec-07 15:01N 43°37' W 003°36'0 0.9
2017-Dec-07 14:30N 43°36' W 003°36'0 0.7
2017-Dec-07 14:00N 43°36' W 003°35'0 0.4
2017-Dec-07 13:30N 43°36' W 003°35'0 0.5
2017-Dec-07 13:00N 43°36' W 003°35'0 0.7
2017-Dec-07 12:31N 43°35' W 003°36'0 0.6
2017-Dec-07 12:01N 43°35' W 003°36'0 0.6
2017-Dec-07 11:31N 43°35' W 003°36'0 0.3
2017-Dec-07 11:00N 43°35' W 003°36'0 0.5
2017-Dec-07 10:30N 43°35' W 003°35'0 0.8
2017-Dec-07 10:01N 43°35' W 003°35'0 0.8
2017-Dec-07 09:30N 43°35' W 003°34'0 0.6
2017-Dec-07 09:00N 43°35' W 003°34'0 0.5
2017-Dec-07 08:31N 43°35' W 003°34'0 0.4
2017-Dec-07 08:01N 43°35' W 003°34'1 1.9
2017-Dec-07 07:31N 43°36' W 003°34'2 3.2
2017-Dec-07 07:01N 43°37' W 003°35'0 0.4
2017-Dec-07 06:31N 43°37' W 003°35'1 1.9
2017-Dec-07 06:00N 43°37' W 003°36'2 3.1
2017-Dec-07 05:31N 43°36' W 003°35'1 2.4
2017-Dec-07 05:01N 43°35' W 003°36'2 3.0
2017-Dec-07 04:30N 43°35' W 003°34'1 1.3
2017-Dec-07 04:00N 43°35' W 003°35'3 6.2
2017-Dec-07 03:30N 43°34' W 003°31'3 6.8
2017-Dec-07 03:00N 43°32' W 003°27'3 6.8
2017-Dec-07 02:31N 43°30' W 003°23'1 2.3
2017-Dec-07 02:00N 43°29' W 003°23'3 6.4
2017-Dec-07 01:31N 43°26' W 003°26'  
2017-Dec-04 10:30N 43°34' W 003°28'0 0.5
2017-Dec-04 10:00N 43°34' W 003°27'0 0.8
2017-Dec-04 09:30N 43°34' W 003°27'0 0.8
2017-Dec-04 09:00N 43°34' W 003°27'0 0.6
2017-Dec-04 08:30N 43°34' W 003°26'0 0.1
2017-Dec-04 08:00N 43°34' W 003°26'0 0.6
2017-Dec-04 07:30N 43°33' W 003°26'1 1.8
2017-Dec-04 07:00N 43°33' W 003°25'0 0.7
2017-Dec-04 06:30N 43°33' W 003°25'0 0.7
2017-Dec-04 06:00N 43°33' W 003°26'1 1.4
2017-Dec-04 05:30N 43°34' W 003°27'1 2.1
2017-Dec-04 05:00N 43°34' W 003°28'2 4.3
2017-Dec-04 04:30N 43°34' W 003°31'2 4.5
2017-Dec-04 04:00N 43°34' W 003°34'0 0.9
2017-Dec-04 03:30N 43°35' W 003°34'0 0.3
2017-Dec-04 03:00N 43°35' W 003°34'0 0.5
2017-Dec-04 02:30N 43°35' W 003°34'0 0.6
2017-Dec-04 02:00N 43°35' W 003°35'0 0.6
2017-Dec-04 01:30N 43°34' W 003°35'1 2.2
2017-Dec-04 01:00N 43°34' W 003°36'3 6.8
2017-Dec-04 00:30N 43°32' W 003°40'  
2017-Nov-30 16:59N 43°30' W 003°41'2 2.0
2017-Nov-30 16:02N 43°31' W 003°39'0 0.6
2017-Nov-30 15:40N 43°31' W 003°39'0 0.5
2017-Nov-30 15:30N 43°31' W 003°39'0 0.6
2017-Nov-30 15:00N 43°31' W 003°38'0 0.7
2017-Nov-30 14:29N 43°32' W 003°38'0 0.7
2017-Nov-30 14:00N 43°32' W 003°37'0 0.8
2017-Nov-30 13:28N 43°32' W 003°37'0 0.7
2017-Nov-30 13:00N 43°32' W 003°36'0 0.6
2017-Nov-30 12:31N 43°32' W 003°36'0 0.6
2017-Nov-30 11:58N 43°32' W 003°35'0 0.8
2017-Nov-30 11:30N 43°32' W 003°35'0 0.6
2017-Nov-30 10:59N 43°32' W 003°35'0 0.8
2017-Nov-30 10:29N 43°32' W 003°34'0 0.1
2017-Nov-30 10:00N 43°32' W 003°34'1 1.0
2017-Nov-30 09:29N 43°32' W 003°33'0 0.7
2017-Nov-30 09:00N 43°32' W 003°33'0 0.9
2017-Nov-30 08:31N 43°32' W 003°32'0 0.9
2017-Nov-30 08:00N 43°33' W 003°32'0 0.6
2017-Nov-30 07:30N 43°33' W 003°31'3 7.0
2017-Nov-30 07:01N 43°32' W 003°36'4 7.2
2017-Nov-30 06:31N 43°30' W 003°41'5 0.5
2017-Nov-29 20:04N 43°32' W 003°34'1 3.2
2017-Nov-29 19:49N 43°32' W 003°32'1 2.5
2017-Nov-29 19:27N 43°33' W 003°31'2 4.7
2017-Nov-29 19:00N 43°34' W 003°33'0 0.7
2017-Nov-29 18:30N 43°35' W 003°33'0 0.2
2017-Nov-29 18:00N 43°35' W 003°34'0 0.4
2017-Nov-29 17:31N 43°34' W 003°34'0 0.2
2017-Nov-29 17:00N 43°34' W 003°34'0 0.9
2017-Nov-29 16:31N 43°34' W 003°34'0 0.7
2017-Nov-29 16:00N 43°34' W 003°34'0 0.4
2017-Nov-29 15:30N 43°35' W 003°34'1 1.2
2017-Nov-29 15:00N 43°34' W 003°34'2 4.6
2017-Nov-29 14:30N 43°34' W 003°31'2 4.0
2017-Nov-29 14:01N 43°34' W 003°28'0 0.6
2017-Nov-29 13:31N 43°34' W 003°28'0 0.2
2017-Nov-29 13:00N 43°34' W 003°28'0 0.5
2017-Nov-29 12:31N 43°34' W 003°28'0 0.5
2017-Nov-29 12:00N 43°34' W 003°28'0 0.4
2017-Nov-29 11:31N 43°34' W 003°27'0 0.2
2017-Nov-29 11:01N 43°34' W 003°27'0 0.1
2017-Nov-29 10:31N 43°34' W 003°27'0 0.4
2017-Nov-29 10:01N 43°34' W 003°27'0 0.6
2017-Nov-29 09:30N 43°34' W 003°27'0 0.5
2017-Nov-29 09:01N 43°34' W 003°27'0 0.9
2017-Nov-29 08:30N 43°34' W 003°27'0 0.5
2017-Nov-29 08:01N 43°34' W 003°26'0 0.5
2017-Nov-29 07:30N 43°33' W 003°26'0 0.7
2017-Nov-29 07:01N 43°33' W 003°27'0 0.8
2017-Nov-29 06:30N 43°34' W 003°27'1 1.6
2017-Nov-29 06:01N 43°34' W 003°27'0 0.7
2017-Nov-29 05:31N 43°34' W 003°28'3 5.6
2017-Nov-29 05:00N 43°34' W 003°32'2 3.8
2017-Nov-29 04:30N 43°35' W 003°34'1 1.1
2017-Nov-29 04:00N 43°34' W 003°33'3 5.9
2017-Nov-29 03:30N 43°33' W 003°30'3 5.5
2017-Nov-29 03:01N 43°32' W 003°27'3 5.9
2017-Nov-29 02:31N 43°30' W 003°23'1 2.1
2017-Nov-29 02:00N 43°29' W 003°23'3 6.5
2017-Nov-29 01:31N 43°26' W 003°25'  

Dump ship's entire track history